Lawrenceville, Pennsylvania
Current Conditions -  °F | °C
As of 3:53 AM on Thursday 18 Dec 2014 (Local Time) from KELM Reporting Station
Overcast Overcast  
Wind Chill: 22°   Ceiling: 3500
Heat Index: 32°   Visibility: 10mi
Dew Point: 24°   Wind: 14mph
Humidity: 73%   Direction: 290°WNW
Pressure: 29.99"   Gusts: NA
Location:  42°N, 77.13°W
Report Text: KELM 180853Z AUTO 29012KT 10SM BKN035 OVC041 00/M04 A2999 RMK AO2 SLP162 60000 T00001044 53011
Loading
Personal Weather Stations






























Interactive Weather Map New forecast layout! Learn more

10-Day Weather Forecast

Advertisements
Track Severe Weather on mobile